Portada
METAR-TAF:

METAR-TAF

Aeroports :

Kunming, Xina

latitud: 25-01N, longitud: 102-41E, altitud: 1892 m

Observació

L'informe es va fer fa 45 minuts, a les 10:00 UTC
Vent 23 kt del Oest/Sud-Oest
Temperatura 26°C
Humitat 23%
Pressió 1012 hPa
Visibilitat 10 km o més
Núvols disperses a una alçada de 3000 ft

METAR: ZPPP 181000Z 25012MPS 9999 SCT030 26/03 Q1012 NOSIG

Hora: 18:45 (10:45 UTC)

Pronòstic

L'informe es va fer fa 9 hores i 37 minuts, a les 01:08 UTC
Pronòstic vàlid del 18 a les 06 UTC al 19 a les 06 UTC
Vent 23 kt del Sud-Oest amb ràfegues de 39 kt
Visibilitat 10 km o més
Escasses núvols a una alçada de 2600 ft
Evolucionant progressivament
l' 18 a les 11 UTC al 18 a les 12 UTC
Vent 14 kt del Sud-Oest

TAF: ZPPP 180108Z 1806/1906 23012G20MPS 9999 FEW026 TX29/1808Z TN14/1823Z BECMG 1811/1812 23007MPS

Observacions i pronòstics meteorològics de més de 4000 aeroports (METAR i TAF).

Les estacions disponibles són els punts grocs i vermells al mapa.

Posi el ratolí al punt desitjat per veure el nom de l'estació.

Feu clic per veure les observacions i els pronòstics meteorològics.

Per canviar el mapa: feu clic els botons verds amb una creu de color negre per apropar; al botó verd amb un guió per allunyar la imatge; o en les fletxes verdes per a mapes adjacents.


METAR-TAF: